Time;durP1;ratioP1;P1;durP2;ratioP2;P2;SDS_P1;SDS_P2;PMS_P1;PMS_P2;Temp;Humidity;BMP_temperature;BMP_pressure;BME280_temperature;BME280_humidity;BME280_pressure;Samples;Min_cycle;Max_cycle;Signal;HPM_P1;HPM_P2
2022/12/04 00:01:31;;;;;;;25.70;10.60;;;;;;;4.81;67.86;100333.09;10356288;28;20046;-70
2022/12/04 00:06:32;;;;;;;25.35;10.63;;;;;;;4.72;67.69;100312.63;10362894;28;20050;-68
2022/12/04 00:11:34;;;;;;;25.63;9.90;;;;;;;4.63;68.19;100318.78;10352855;28;20049;-67
2022/12/04 00:16:35;;;;;;;32.22;11.60;;;;;;;4.69;67.85;100316.41;10369895;28;20041;-70
2022/12/04 00:21:37;;;;;;;24.73;10.13;;;;;;;4.65;68.11;100316.84;10370914;28;20626;-69
2022/12/04 00:26:39;;;;;;;23.63;10.02;;;;;;;4.62;68.03;100312.63;10386352;28;20046;-67
2022/12/04 00:31:40;;;;;;;24.33;10.27;;;;;;;4.65;67.71;100325.66;10372933;28;20083;-69
2022/12/04 00:36:41;;;;;;;24.33;10.60;;;;;;;4.59;68.07;100312.91;10357075;28;20496;-68
2022/12/04 00:41:43;;;;;;;27.48;10.07;;;;;;;4.59;68.18;100328.03;10352991;28;20061;-67
2022/12/04 00:46:44;;;;;;;23.13;9.65;;;;;;;4.63;67.74;100329.44;10375350;28;20576;-68
2022/12/04 00:51:46;;;;;;;23.13;9.45;;;;;;;4.57;67.90;100336.16;10345775;28;20050;-69
2022/12/04 00:56:47;;;;;;;25.05;10.25;;;;;;;4.51;68.11;100337.53;10342697;28;20042;-69
2022/12/04 01:01:48;;;;;;;26.08;11.40;;;;;;;4.48;68.48;100339.63;10340393;28;20081;-69
2022/12/04 01:06:50;;;;;;;25.85;10.15;;;;;;;4.54;67.58;100336.41;10345739;28;20161;-69
2022/12/04 01:11:51;;;;;;;29.33;10.50;;;;;;;4.56;67.71;100326.47;10341056;28;20176;-70
2022/12/04 01:16:53;;;;;;;28.70;10.52;;;;;;;4.54;67.94;100326.63;10342164;28;20133;-70
2022/12/04 01:21:54;;;;;;;22.95;10.15;;;;;;;4.63;67.68;100308.97;10340790;28;20354;-69
2022/12/04 01:26:56;;;;;;;25.20;8.93;;;;;;;4.59;67.78;100302.25;10346358;28;20108;-69
2022/12/04 01:31:57;;;;;;;22.73;8.95;;;;;;;4.51;68.22;100297.63;10339479;28;20137;-69
2022/12/04 01:36:58;;;;;;;29.38;10.40;;;;;;;4.53;68.00;100287.66;10335879;28;20136;-69
2022/12/04 01:42:00;;;;;;;25.00;9.70;;;;;;;4.52;67.80;100283.34;10342391;28;20124;-70
2022/12/04 01:47:01;;;;;;;23.40;8.38;;;;;;;4.50;68.16;100279.97;10341331;28;20141;-70
2022/12/04 01:52:10;;;;;;;22.35;8.93;;;;;;;4.49;68.03;100288.09;10338474;28;20457;-70
2022/12/04 01:57:15;;;;;;;25.65;9.77;;;;;;;4.43;68.09;100292.16;10347459;28;20141;-69
2022/12/04 02:02:22;;;;;;;23.65;9.80;;;;;;;4.40;68.10;100289.75;10354319;28;20750;-62
2022/12/04 02:07:24;;;;;;;25.02;9.57;;;;;;;4.48;68.06;100292.59;10372504;28;20091;-61
2022/12/04 02:12:32;;;;;;;21.83;9.82;;;;;;;4.51;67.83;100307.44;10369922;28;20061;-63
2022/12/04 02:17:40;;;;;;;27.70;11.07;;;;;;;4.51;67.86;100294.94;10366834;28;20041;-62
2022/12/04 02:23:11;;;;;;;23.48;9.50;;;;;;;4.49;67.84;100306.72;10372716;28;20479;-62
2022/12/04 02:28:35;;;;;;;24.83;9.50;;;;;;;4.42;68.20;100314.41;10368056;28;20076;-64
2022/12/04 02:34:19;;;;;;;26.30;10.60;;;;;;;4.40;68.03;100307.53;10371887;28;20076;-61
2022/12/04 02:39:32;;;;;;;24.63;10.02;;;;;;;4.47;68.29;100306.84;10323352;28;20054;-59
2022/12/04 02:44:56;;;;;;;23.35;9.50;;;;;;;4.42;68.26;100311.75;10368195;28;20073;-59
2022/12/04 02:50:00;;;;;;;26.35;10.48;;;;;;;4.42;68.09;100317.06;10367813;28;20046;-61
2022/12/04 02:55:06;;;;;;;22.17;10.00;;;;;;;4.56;68.12;100318.47;10372033;28;20061;-59
2022/12/04 03:00:13;;;;;;;25.50;9.75;;;;;;;4.49;68.04;100307.56;10369983;28;20052;-60
2022/12/04 03:05:19;;;;;;;22.00;9.40;;;;;;;4.46;68.06;100297.19;10366621;28;20062;-61
2022/12/04 03:10:33;;;;;;;25.55;10.85;;;;;;;4.45;68.03;100290.19;10370964;28;20054;-60
2022/12/04 03:15:44;;;;;;;21.25;10.20;;;;;;;4.48;68.24;100292.59;10367395;28;20052;-61
2022/12/04 03:20:51;;;;;;;24.13;9.98;;;;;;;4.51;68.10;100291.47;10372083;28;20085;-60
2022/12/04 03:25:57;;;;;;;25.52;9.85;;;;;;;4.49;67.97;100288.09;10367844;28;20046;-63
2022/12/04 03:31:05;;;;;;;21.70;10.18;;;;;;;4.43;68.24;100292.16;10364256;28;20045;-60
2022/12/04 03:36:17;;;;;;;25.70;10.43;;;;;;;4.37;67.81;100295.34;10349493;28;20049;-61
2022/12/04 03:41:28;;;;;;;25.52;11.20;;;;;;;4.39;68.18;100290.75;10366111;28;20078;-61
2022/12/04 03:46:39;;;;;;;25.48;10.43;;;;;;;4.48;67.82;100281.94;10353341;28;20060;-61
2022/12/04 03:51:56;;;;;;;24.73;9.55;;;;;;;4.40;68.36;100286.25;10366650;28;20054;-60
2022/12/04 03:57:07;;;;;;;23.55;9.45;;;;;;;4.44;67.63;100285.81;10369859;28;20084;-59
2022/12/04 04:02:16;;;;;;;23.90;8.88;;;;;;;4.43;68.20;100286.81;10365974;28;20089;-61
2022/12/04 04:07:24;;;;;;;23.13;9.75;;;;;;;4.46;68.06;100281.22;10367336;28;20047;-61
2022/12/04 04:12:39;;;;;;;24.52;9.32;;;;;;;4.54;68.07;100276.06;10366253;28;20496;-59
2022/12/04 04:28:32;;;;;;;25.77;9.82;;;;;;;4.48;67.92;100265.97;10366021;28;20042;-60
2022/12/04 04:33:44;;;;;;;21.60;9.02;;;;;;;4.40;67.93;100257.81;10365696;28;20046;-63
2022/12/04 04:38:58;;;;;;;24.75;9.57;;;;;;;4.38;68.06;100267.75;10359901;28;20057;-63
2022/12/04 04:44:11;;;;;;;24.30;9.48;;;;;;;4.37;68.18;100269.59;10364925;28;20053;-62
2022/12/04 04:49:14;;;;;;;22.30;9.40;;;;;;;4.34;67.89;100267.22;10360749;28;20109;-62
2022/12/04 04:54:18;;;;;;;21.02;9.70;;;;;;;4.33;68.12;100275.31;10361863;28;20544;-62
2022/12/04 04:59:19;;;;;;;23.92;10.48;;;;;;;4.37;68.37;100282.06;10364344;28;20053;-60
2022/12/04 05:04:21;;;;;;;18.60;8.55;;;;;;;4.41;68.21;100287.94;10357866;28;20050;-62
2022/12/04 05:09:22;;;;;;;22.83;10.00;;;;;;;4.31;68.35;100291.44;10369871;28;20050;-61
2022/12/04 05:14:23;;;;;;;21.65;9.77;;;;;;;4.33;68.17;100288.63;10360861;28;20049;-60
2022/12/04 05:24:45;;;;;;;24.58;10.00;;;;;;;4.28;68.10;100282.88;10354911;28;20623;-60
2022/12/04 05:29:46;;;;;;;22.88;9.68;;;;;;;4.26;68.38;100271.53;10360910;28;20080;-60
2022/12/04 05:34:49;;;;;;;21.95;9.43;;;;;;;4.24;68.09;100269.00;10370950;28;20050;-62
2022/12/04 05:39:51;;;;;;;23.23;9.48;;;;;;;4.21;68.26;100274.59;10362069;28;20042;-63
2022/12/04 05:44:52;;;;;;;20.33;8.75;;;;;;;4.21;68.01;100271.94;10361068;28;20046;-62
2022/12/04 05:49:54;;;;;;;21.02;9.52;;;;;;;4.13;68.23;100264.63;10361997;28;20042;-60
2022/12/04 05:54:55;;;;;;;20.42;8.27;;;;;;;4.17;68.34;100274.03;10360531;28;20108;-60
2022/12/04 05:59:57;;;;;;;18.17;7.25;;;;;;;4.20;68.05;100280.88;10360593;28;20050;-61
2022/12/04 06:04:58;;;;;;;18.25;8.75;;;;;;;4.12;68.33;100278.06;10362262;28;20046;-59
2022/12/04 06:10:00;;;;;;;18.13;7.25;;;;;;;4.09;68.19;100275.69;10364587;28;20452;-61
2022/12/04 06:15:03;;;;;;;17.17;8.20;;;;;;;4.05;68.01;100285.75;10359894;28;20061;-60
2022/12/04 06:20:05;;;;;;;18.30;8.82;;;;;;;3.99;67.71;100283.66;10360770;28;20042;-61
2022/12/04 06:25:12;;;;;;;;;;;;;;;4.01;68.02;100292.34;10363326;28;20054;-63
2022/12/04 06:30:13;;;;;;;18.92;7.75;;;;;;;4.03;68.09;100300.16;10367070;28;19925;-64
2022/12/04 06:35:15;;;;;;;15.43;7.43;;;;;;;4.01;67.94;100286.16;10361399;28;20527;-64
2022/12/04 06:40:16;;;;;;;19.02;8.00;;;;;;;4.03;68.10;100294.84;10371095;28;20065;-62
2022/12/04 06:45:18;;;;;;;15.45;6.97;;;;;;;4.07;68.01;100286.47;10368601;28;20050;-61
2022/12/04 06:50:19;;;;;;;21.05;9.60;;;;;;;4.04;67.90;100281.41;10363004;28;20054;-62
2022/12/04 06:55:20;;;;;;;15.20;6.70;;;;;;;4.08;67.89;100279.31;10372230;28;20050;-61
2022/12/04 07:00:22;;;;;;;18.02;8.27;;;;;;;4.09;67.96;100279.19;10367298;28;20061;-64
2022/12/04 07:05:23;;;;;;;15.98;7.20;;;;;;;4.07;68.08;100278.50;10374298;28;20501;-63
2022/12/04 07:10:24;;;;;;;16.55;7.65;;;;;;;4.12;68.07;100280.72;10393559;28;20052;-63
2022/12/04 07:15:26;;;;;;;15.40;7.60;;;;;;;4.17;67.54;100282.00;10402031;28;20270;-62
2022/12/04 07:20:27;;;;;;;15.20;6.60;;;;;;;4.13;67.75;100282.44;10399058;28;20057;-63
2022/12/04 07:25:30;;;;;;;19.92;9.05;;;;;;;4.18;67.53;100274.88;10386028;28;20062;-63
2022/12/04 07:30:31;;;;;;;18.48;7.55;;;;;;;4.25;67.59;100275.19;10395634;28;20042;-63
2022/12/04 07:35:33;;;;;;;19.33;7.78;;;;;;;4.26;67.67;100269.69;10398418;28;20065;-63
2022/12/04 07:40:36;;;;;;;16.05;7.90;;;;;;;4.22;67.69;100275.44;10379502;28;20037;-63
2022/12/04 07:45:38;;;;;;;18.70;7.43;;;;;;;4.22;67.71;100270.13;10400769;28;20033;-63
2022/12/04 07:50:39;;;;;;;15.77;6.88;;;;;;;4.20;67.65;100264.09;10396850;28;20061;-63
2022/12/04 07:55:41;;;;;;;16.85;7.45;;;;;;;4.25;67.84;100275.19;10399875;28;20208;-63
2022/12/04 08:00:42;;;;;;;16.50;7.20;;;;;;;4.29;67.70;100274.75;10403651;28;20048;-64
2022/12/04 08:05:44;;;;;;;20.13;8.05;;;;;;;4.26;68.07;100274.19;10398780;28;20102;-63
2022/12/04 08:10:45;;;;;;;21.05;8.52;;;;;;;4.34;67.85;100284.97;10401294;28;20030;-63
2022/12/04 08:15:46;;;;;;;20.98;8.45;;;;;;;4.36;67.95;100289.22;10404223;28;20030;-63
2022/12/04 08:20:48;;;;;;;22.67;9.75;;;;;;;4.41;67.95;100296.75;10397363;28;20033;-63
2022/12/04 08:25:49;;;;;;;19.85;8.55;;;;;;;4.48;67.99;100303.22;10398333;28;20053;-63
2022/12/04 08:30:50;;;;;;;23.08;9.50;;;;;;;4.52;67.86;100299.31;10406413;28;20048;-63
2022/12/04 08:35:52;;;;;;;23.23;9.13;;;;;;;4.60;67.76;100295.09;10385306;28;20264;-63
2022/12/04 08:40:53;;;;;;;20.55;8.88;;;;;;;4.62;68.17;100298.47;10399398;28;20042;-63
2022/12/04 08:45:59;;;;;;;21.83;9.00;;;;;;;4.52;68.29;100293.13;10397119;28;20038;-63
2022/12/04 08:51:06;;;;;;;24.05;10.35;;;;;;;4.54;68.55;100283.19;10393794;28;20054;-63
2022/12/04 08:56:08;;;;;;;23.33;9.30;;;;;;;4.56;68.32;100276.75;10396868;28;20053;-64
2022/12/04 09:01:11;;;;;;;27.08;10.05;;;;;;;4.54;68.86;100281.38;10393054;28;20050;-62
2022/12/04 09:06:46;;;;;;;26.92;10.70;;;;;;;4.56;68.61;100274.09;10443433;23;20077;-88
2022/12/04 09:11:48;;;;;;;31.05;11.43;;;;;;;4.59;68.95;100272.13;10280458;28;20070;-89
2022/12/04 09:16:49;;;;;;;27.95;11.52;;;;;;;4.73;68.81;100266.38;10262280;28;20134;-88
2022/12/04 09:21:51;;;;;;;28.38;11.07;;;;;;;4.75;68.98;100262.59;10291363;28;20046;-89
2022/12/04 09:26:53;;;;;;;32.42;12.43;;;;;;;4.82;69.20;100270.00;10307576;28;20037;-89
2022/12/04 09:48:10;;;;;;;29.58;11.73;;;;;;;4.87;69.21;100265.94;2455127;22;20625;-90
2022/12/04 09:53:28;;;;;;;36.08;12.02;;;;;;;4.81;69.45;100271.84;10308348;28;20046;-89
2022/12/04 09:58:51;;;;;;;28.02;11.50;;;;;;;4.92;69.05;100249.56;10307321;28;20100;-89
2022/12/04 10:03:54;;;;;;;32.35;11.98;;;;;;;5.01;69.00;100261.19;10307162;28;20050;-89
2022/12/04 10:09:23;;;;;;;29.70;11.20;;;;;;;5.06;68.78;100261.59;10289391;28;20047;-88
2022/12/04 10:14:47;;;;;;;27.65;10.02;;;;;;;5.06;69.42;100261.59;10311941;28;20050;-89
2022/12/04 10:20:22;;;;;;;28.60;11.43;;;;;;;5.13;68.79;100252.03;10301424;28;20491;-90
2022/12/04 10:25:25;;;;;;;25.77;10.23;;;;;;;5.16;68.92;100251.75;10322948;28;20060;-88
2022/12/04 10:30:31;;;;;;;28.15;11.15;;;;;;;5.24;69.73;100251.06;10309476;28;20049;-89
2022/12/04 10:35:36;;;;;;;29.48;11.15;;;;;;;5.23;69.08;100239.53;10318217;28;20046;-86
2022/12/04 10:40:54;;;;;;;26.73;10.43;;;;;;;5.26;68.74;100236.59;10341784;23;20057;-87
2022/12/04 10:45:56;;;;;;;;;;;;;;;5.28;69.25;100223.97;10307827;28;20118;-88
2022/12/04 10:50:58;;;;;;;28.85;11.35;;;;;;;5.38;68.57;100217.78;10298513;28;20008;-88
2022/12/04 10:56:16;;;;;;;31.13;10.73;;;;;;;5.48;68.39;100218.56;10311371;28;20051;-88
2022/12/04 11:01:21;;;;;;;23.40;10.02;;;;;;;5.52;68.47;100215.44;10315031;28;20055;-88
2022/12/04 11:06:25;;;;;;;24.88;10.15;;;;;;;5.55;68.25;100206.34;10294482;28;20043;-89
2022/12/04 11:11:34;;;;;;;27.83;10.73;;;;;;;5.53;68.75;100195.81;10312335;28;20193;-87
2022/12/04 11:16:39;;;;;;;20.85;8.05;;;;;;;5.64;68.32;100188.59;10295645;28;20058;-86
2022/12/04 11:21:41;;;;;;;26.42;10.68;;;;;;;5.65;68.16;100183.13;10308625;28;20073;-86
2022/12/04 11:26:46;;;;;;;25.35;10.02;;;;;;;5.76;68.48;100174.06;10311496;28;20050;-86
2022/12/04 11:31:53;;;;;;;26.63;10.32;;;;;;;5.79;68.02;100167.63;10302329;28;20055;-86
2022/12/04 11:36:56;;;;;;;;;;;;;;;5.71;68.18;100165.69;10282868;28;20055;-87
2022/12/04 11:42:15;;;;;;;19.88;9.02;;;;;;;5.72;68.26;100159.38;10277388;28;19923;-87
2022/12/04 11:47:19;;;;;;;25.33;8.80;;;;;;;5.72;68.56;100151.38;10270230;28;20055;-87
2022/12/04 11:52:34;;;;;;;20.27;9.05;;;;;;;5.73;68.21;100147.72;10246513;28;20059;-88
2022/12/04 11:57:56;;;;;;;23.17;9.07;;;;;;;5.82;67.70;100135.31;10240293;28;20798;-88
2022/12/04 12:03:25;;;;;;;19.40;8.15;;;;;;;5.88;67.89;100142.69;10249189;28;20065;-88
2022/12/04 12:08:49;;;;;;;22.33;9.82;;;;;;;5.98;67.30;100140.00;10272953;28;20052;-88
2022/12/04 12:14:07;;;;;;;22.77;8.70;;;;;;;6.05;67.41;100151.75;10233432;28;20050;-87
2022/12/04 12:19:23;;;;;;;19.17;8.90;;;;;;;6.00;67.27;100149.53;10274057;28;20522;-87
2022/12/04 12:24:31;;;;;;;22.27;9.23;;;;;;;5.97;67.52;100154.34;10274176;28;20557;-88
2022/12/04 12:30:01;;;;;;;20.85;8.95;;;;;;;5.97;67.58;100171.19;10258297;28;20126;-88
2022/12/04 12:35:12;;;;;;;20.10;8.65;;;;;;;5.98;67.42;100183.50;10238807;28;20071;-88
2022/12/04 12:40:18;;;;;;;20.58;9.00;;;;;;;5.90;67.23;100181.56;10249176;28;20050;-88
2022/12/04 12:45:32;;;;;;;22.45;8.88;;;;;;;5.95;67.11;100166.00;10316395;28;20043;-88
2022/12/04 12:50:43;;;;;;;22.10;8.93;;;;;;;5.97;67.47;100176.50;10300071;28;20042;-88
2022/12/04 12:55:49;;;;;;;23.08;9.68;;;;;;;5.96;67.54;100161.50;10297369;28;20118;-88
2022/12/04 13:01:23;;;;;;;21.10;9.57;;;;;;;5.96;67.63;100166.81;10296039;28;20146;-87
2022/12/04 13:06:36;;;;;;;20.90;9.55;;;;;;;5.92;67.19;100168.94;10301088;28;20058;-87
2022/12/04 13:11:40;;;;;;;21.20;9.70;;;;;;;5.91;67.60;100166.41;10301085;28;20074;-85
2022/12/04 13:16:48;;;;;;;21.85;9.25;;;;;;;5.91;67.09;100155.75;10325291;28;20043;-84
2022/12/04 13:22:27;;;;;;;24.50;10.45;;;;;;;5.82;67.09;100143.31;10308887;28;20081;-86
2022/12/04 13:27:51;;;;;;;28.52;10.38;;;;;;;5.76;67.90;100144.75;10310681;28;20062;-86
2022/12/04 13:33:14;;;;;;;21.85;9.40;;;;;;;5.83;67.53;100134.34;10303880;28;20067;-88
2022/12/04 13:38:44;;;;;;;24.05;9.20;;;;;;;5.84;67.46;100131.50;10455570;23;20057;-87
2022/12/04 13:43:48;;;;;;;22.70;9.75;;;;;;;5.88;66.95;100127.53;10315887;28;20485;-88
2022/12/04 13:48:49;;;;;;;20.38;9.30;;;;;;;5.87;67.27;100120.53;10323078;28;20053;-87
2022/12/04 13:54:23;;;;;;;23.85;10.45;;;;;;;5.87;67.24;100111.69;10317789;28;20093;-87
2022/12/04 13:59:28;;;;;;;20.63;9.95;;;;;;;5.81;67.55;100109.63;10321204;28;20081;-87
2022/12/04 14:04:39;;;;;;;23.25;9.75;;;;;;;5.80;66.93;100115.94;10338606;28;20061;-88
2022/12/04 14:09:48;;;;;;;25.02;10.63;;;;;;;5.91;67.04;100105.91;10340938;28;20125;-88
2022/12/04 14:14:59;;;;;;;24.98;10.93;;;;;;;5.86;67.52;100104.66;10338826;28;20061;-87
2022/12/04 14:20:07;;;;;;;27.20;11.63;;;;;;;5.82;67.61;100096.13;10335595;28;20577;-87
2022/12/04 14:25:12;;;;;;;22.23;10.25;;;;;;;5.84;67.23;100095.97;10333871;28;20050;-87
2022/12/04 14:30:23;;;;;;;22.05;10.02;;;;;;;5.87;67.48;100093.03;10334745;28;20232;-88
2022/12/04 14:35:27;;;;;;;21.75;10.73;;;;;;;5.82;67.78;100104.13;10344911;28;20046;-87
2022/12/04 14:40:58;;;;;;;26.52;11.30;;;;;;;5.87;67.34;100112.53;10364032;28;20057;-87
2022/12/04 14:46:20;;;;;;;24.02;10.77;;;;;;;5.73;67.53;100123.72;10339631;28;20112;-87
2022/12/04 14:51:59;;;;;;;23.95;10.32;;;;;;;5.71;67.36;100117.69;10334345;28;20050;-86
2022/12/04 14:57:29;;;;;;;24.85;11.27;;;;;;;5.66;68.06;100133.28;10338651;28;20034;-87
2022/12/04 15:02:40;;;;;;;23.35;10.48;;;;;;;5.72;68.00;100128.19;10323803;28;20062;-88
2022/12/04 15:07:51;;;;;;;24.48;11.90;;;;;;;5.70;67.88;100134.69;10335758;28;20082;-88
2022/12/04 15:12:53;;;;;;;27.20;11.38;;;;;;;5.72;68.00;100135.38;10350243;28;20069;-89
2022/12/04 15:18:08;;;;;;;22.55;10.45;;;;;;;5.69;68.04;100130.34;10329563;28;20046;-86
2022/12/04 15:23:33;;;;;;;24.63;11.02;;;;;;;5.69;67.64;100133.84;10328537;28;20055;-88
2022/12/04 15:29:06;;;;;;;26.33;11.13;;;;;;;5.70;68.02;100137.34;10317286;28;20083;-88
2022/12/04 15:34:14;;;;;;;25.80;12.02;;;;;;;5.64;67.94;100138.78;10352100;28;20057;-88
2022/12/04 15:39:22;;;;;;;27.13;11.30;;;;;;;5.69;67.76;100141.84;10330826;28;20109;-86
2022/12/04 15:44:33;;;;;;;22.02;10.88;;;;;;;5.80;67.37;100134.63;10355238;28;20512;-87
2022/12/04 15:49:35;;;;;;;22.27;9.43;;;;;;;5.84;67.28;100136.81;10329173;28;20136;-87
2022/12/04 15:54:42;;;;;;;24.80;11.13;;;;;;;5.86;67.46;100142.84;10311842;28;20050;-87
2022/12/04 15:59:50;;;;;;;21.60;10.68;;;;;;;5.87;67.34;100144.53;10348349;28;20523;-87
2022/12/04 16:04:52;;;;;;;;;;;;;;;5.83;67.58;100148.50;10326999;28;20034;-87
2022/12/04 16:10:18;;;;;;;20.15;10.15;;;;;;;5.87;67.42;100143.69;10327173;28;19930;-88
2022/12/04 16:15:21;;;;;;;27.23;11.90;;;;;;;5.87;67.51;100154.38;10336783;28;20052;-87
2022/12/04 16:20:22;;;;;;;23.75;10.70;;;;;;;5.91;67.46;100147.75;10292507;28;20684;-88
2022/12/04 16:25:24;;;;;;;23.40;11.40;;;;;;;5.82;68.33;100148.63;10304014;28;20081;-87
2022/12/04 16:30:36;;;;;;;23.13;10.55;;;;;;;5.81;67.78;100150.47;10326212;28;20064;-88
2022/12/04 16:35:38;;;;;;;26.45;11.73;;;;;;;5.71;68.05;100161.19;10333781;28;20587;-88
2022/12/04 16:40:40;;;;;;;20.63;9.95;;;;;;;5.69;68.02;100160.50;10313037;28;20061;-89
2022/12/04 16:45:48;;;;;;;23.90;10.50;;;;;;;5.70;67.71;100146.16;10329906;28;20046;-87
2022/12/04 16:50:49;;;;;;;21.63;10.85;;;;;;;5.70;68.54;100151.50;10319031;28;20480;-87
2022/12/04 16:55:52;;;;;;;23.23;10.10;;;;;;;5.67;68.42;100143.81;10347658;28;20050;-86
2022/12/04 17:00:55;;;;;;;24.85;11.98;;;;;;;5.72;68.54;100138.03;10332684;28;20050;-86
2022/12/04 17:05:59;;;;;;;22.92;10.55;;;;;;;5.76;68.39;100132.22;10317294;28;20049;-87
2022/12/04 17:11:00;;;;;;;27.30;12.63;;;;;;;5.80;68.25;100135.44;10333848;28;20050;-87
2022/12/04 17:16:02;;;;;;;21.95;11.05;;;;;;;5.78;68.20;100125.94;10324038;28;20070;-87
2022/12/04 17:21:09;;;;;;;28.48;11.80;;;;;;;5.72;68.17;100122.84;10326051;28;20049;-87
2022/12/04 17:26:13;;;;;;;24.55;11.15;;;;;;;5.71;68.33;100126.53;10346460;28;20042;-86
2022/12/04 17:31:20;;;;;;;22.58;10.32;;;;;;;5.70;69.24;100126.69;10310106;28;20058;-87
2022/12/04 17:36:24;;;;;;;21.58;10.65;;;;;;;5.60;68.93;100120.56;10313659;28;20058;-89
2022/12/04 17:41:26;;;;;;;20.65;10.40;;;;;;;5.50;68.90;100118.78;10325109;28;20519;-89
2022/12/04 17:46:28;;;;;;;24.48;12.20;;;;;;;5.47;69.20;100107.56;10339821;28;20061;-89
2022/12/04 17:56:50;;;;;;;23.73;11.20;;;;;;;5.32;69.29;100105.41;10318395;28;20098;-61
2022/12/04 18:01:58;;;;;;;21.77;10.75;;;;;;;5.24;69.71;100094.66;10337552;28;20135;-63
2022/12/04 18:06:59;;;;;;;20.23;8.85;;;;;;;5.25;70.13;100092.81;10342875;28;20054;-60
2022/12/04 18:12:01;;;;;;;22.13;10.35;;;;;;;5.27;69.66;100094.38;10338439;28;20050;-62
2022/12/04 18:17:03;;;;;;;22.92;10.45;;;;;;;5.26;70.14;100092.69;10342959;28;20495;-63
2022/12/04 18:22:04;;;;;;;21.70;10.02;;;;;;;5.26;69.71;100108.69;10344417;28;20054;-60
2022/12/04 18:27:06;;;;;;;21.77;10.82;;;;;;;5.22;69.95;100095.81;10348165;28;20042;-62
2022/12/04 18:32:07;;;;;;;23.17;10.43;;;;;;;5.18;70.55;100086.44;10348888;28;20046;-63
2022/12/04 18:37:09;;;;;;;24.88;10.55;;;;;;;5.22;70.58;100093.16;10358044;28;20110;-60
2022/12/04 18:42:10;;;;;;;23.25;9.95;;;;;;;5.23;70.37;100108.13;10353897;28;20058;-61
2022/12/04 18:47:12;;;;;;;21.17;10.80;;;;;;;5.24;70.26;100115.16;10339113;28;20054;-58
2022/12/04 18:52:13;;;;;;;21.73;10.45;;;;;;;5.28;70.17;100114.69;10330924;28;20055;-60
2022/12/04 18:57:15;;;;;;;25.45;10.35;;;;;;;5.32;70.47;100104.59;10292523;28;20051;-63
2022/12/04 19:02:16;;;;;;;26.17;11.98;;;;;;;5.34;70.48;100094.63;10292885;28;20093;-60
2022/12/04 19:07:18;;;;;;;20.00;10.15;;;;;;;5.40;70.13;100107.34;10293770;28;20050;-61
2022/12/04 19:12:19;;;;;;;20.38;10.02;;;;;;;5.40;70.02;100118.00;10289806;28;20078;-60
2022/12/04 19:17:22;;;;;;;25.83;11.50;;;;;;;5.43;70.44;100123.06;10292228;28;20050;-60
2022/12/04 19:22:23;;;;;;;21.63;10.18;;;;;;;5.44;70.14;100131.88;10286990;28;20104;-58
2022/12/04 19:27:26;;;;;;;21.70;10.43;;;;;;;5.46;70.29;100143.25;10274654;28;20054;-60
2022/12/04 19:32:27;;;;;;;25.25;11.07;;;;;;;5.50;70.60;100139.28;10289718;28;20099;-59
2022/12/04 19:37:29;;;;;;;25.67;12.60;;;;;;;5.51;70.13;100139.13;10294938;28;20058;-60
2022/12/04 19:42:30;;;;;;;23.05;10.05;;;;;;;5.55;70.52;100135.19;10289574;28;20054;-61
2022/12/04 19:47:32;;;;;;;21.48;9.93;;;;;;;5.66;69.88;100149.31;10279083;28;20059;-61
2022/12/04 19:52:34;;;;;;;22.63;11.07;;;;;;;5.80;69.72;100151.44;10305574;28;20090;-63
2022/12/04 19:57:35;;;;;;;23.38;10.55;;;;;;;5.81;69.97;100137.13;10304035;28;20061;-60
2022/12/04 20:02:37;;;;;;;20.77;10.35;;;;;;;5.86;69.38;100140.19;10270385;28;20053;-60
2022/12/04 20:07:39;;;;;;;22.52;10.38;;;;;;;5.80;70.13;100145.28;10297290;28;20062;-60
2022/12/04 20:12:40;;;;;;;25.98;11.77;;;;;;;5.80;70.46;100151.44;10300187;28;20051;-62
2022/12/04 20:17:42;;;;;;;20.60;9.88;;;;;;;5.82;69.84;100157.47;10305488;28;20050;-64
2022/12/04 20:22:43;;;;;;;21.67;11.23;;;;;;;5.84;70.35;100144.81;10310968;28;20047;-61
2022/12/04 20:27:45;;;;;;;22.80;11.45;;;;;;;5.93;69.97;100154.59;10301219;28;20082;-62
2022/12/04 20:32:46;;;;;;;21.10;11.82;;;;;;;6.00;69.30;100151.34;10311941;28;20050;-61
2022/12/04 20:37:48;;;;;;;23.85;11.65;;;;;;;6.01;69.85;100161.06;10306597;28;21181;-60
2022/12/04 20:42:49;;;;;;;24.20;11.32;;;;;;;6.01;70.01;100166.38;10298851;28;20062;-62
2022/12/04 20:47:50;;;;;;;24.73;10.73;;;;;;;6.06;69.53;100183.63;10279430;28;20093;-63
2022/12/04 20:52:52;;;;;;;23.38;11.13;;;;;;;6.12;69.49;100184.81;10307293;28;20043;-64
2022/12/04 20:57:56;;;;;;;25.00;12.20;;;;;;;5.99;69.93;100185.22;10274299;28;20050;-64
2022/12/04 21:02:57;;;;;;;24.38;12.23;;;;;;;5.84;70.56;100178.66;10284983;28;20093;-59
2022/12/04 21:07:58;;;;;;;21.65;11.57;;;;;;;5.84;70.27;100182.16;10302403;28;20121;-59
2022/12/04 21:18:20;;;;;;;26.48;12.50;;;;;;;5.72;70.16;100183.38;10306030;28;20453;-61
2022/12/04 21:23:22;;;;;;;22.42;11.75;;;;;;;5.76;70.45;100182.91;10311819;28;20098;-63
2022/12/04 21:28:23;;;;;;;26.65;12.95;;;;;;;5.84;70.48;100192.84;10302386;28;20050;-61
2022/12/04 21:33:24;;;;;;;25.20;12.00;;;;;;;5.87;69.98;100197.06;10308999;28;20043;-64
2022/12/04 21:38:26;;;;;;;26.90;13.43;;;;;;;5.84;69.98;100195.50;10316248;28;20058;-59
2022/12/04 21:43:29;;;;;;;26.92;12.15;;;;;;;5.79;69.94;100195.13;10313826;28;20053;-60
2022/12/04 21:48:31;;;;;;;28.25;13.10;;;;;;;5.76;71.03;100195.41;10305874;28;20043;-61
2022/12/04 21:53:33;;;;;;;25.63;12.10;;;;;;;5.65;70.57;100203.63;10302756;28;20047;-62
2022/12/04 21:58:41;;;;;;;27.45;13.93;;;;;;;5.62;71.19;100195.91;10302444;28;20565;-64
2022/12/04 22:03:42;;;;;;;30.08;12.48;;;;;;;5.53;71.49;100209.16;10310440;28;20428;-62
2022/12/04 22:08:44;;;;;;;26.85;12.75;;;;;;;5.51;71.61;100202.25;10317250;28;20043;-60
2022/12/04 22:13:45;;;;;;;26.50;13.48;;;;;;;5.49;71.66;100196.25;10313856;28;20074;-60
2022/12/04 22:18:47;;;;;;;31.92;13.45;;;;;;;5.39;71.68;100198.09;10299597;28;20051;-61
2022/12/04 22:23:53;;;;;;;26.98;12.95;;;;;;;5.40;71.68;100205.97;10314247;28;20046;-59
2022/12/04 22:28:55;;;;;;;29.48;13.63;;;;;;;5.39;71.90;100200.78;10305945;28;20069;-59
2022/12/04 22:33:59;;;;;;;29.98;13.55;;;;;;;5.32;72.21;100193.38;10303060;28;20057;-59
2022/12/04 22:39:00;;;;;;;31.85;13.93;;;;;;;5.25;72.48;100200.28;10300837;28;20103;-60
2022/12/04 22:44:11;;;;;;;28.20;13.57;;;;;;;5.28;72.37;100207.97;10295866;28;20061;-59
2022/12/04 22:49:13;;;;;;;31.30;14.63;;;;;;;5.30;72.06;100206.00;10294637;28;20133;-59
2022/12/04 22:54:15;;;;;;;29.60;13.55;;;;;;;5.31;72.54;100205.03;10281030;28;20525;-59
2022/12/04 22:59:16;;;;;;;28.85;13.38;;;;;;;5.26;72.47;100195.78;10280193;28;20532;-58
2022/12/04 23:04:18;;;;;;;30.15;13.95;;;;;;;5.28;72.56;100197.31;10274227;28;20082;-58
2022/12/04 23:09:19;;;;;;;28.45;13.18;;;;;;;5.32;72.90;100192.53;10273649;28;20085;-60
2022/12/04 23:14:22;;;;;;;29.13;13.63;;;;;;;5.26;73.49;100199.28;10290532;28;20051;-60
2022/12/04 23:19:23;;;;;;;28.20;13.55;;;;;;;5.22;73.40;100200.56;10274230;28;20043;-58
2022/12/04 23:24:25;;;;;;;29.10;15.00;;;;;;;5.20;73.77;100199.03;10270931;28;20050;-58
2022/12/04 23:29:26;;;;;;;30.02;13.57;;;;;;;5.25;74.36;100202.94;10284736;28;20075;-61
2022/12/04 23:34:48;;;;;;;29.55;13.60;;;;;;;5.29;73.74;100211.47;10283471;28;20617;-58
2022/12/04 23:39:49;;;;;;;29.05;12.65;;;;;;;5.30;73.93;100218.50;10281187;28;20113;-62
2022/12/04 23:44:51;;;;;;;34.55;13.73;;;;;;;5.25;74.45;100224.25;10296239;28;20051;-60
2022/12/04 23:49:52;;;;;;;32.00;13.50;;;;;;;5.27;74.58;100224.97;10300071;28;20050;-59
2022/12/04 23:54:53;;;;;;;32.55;13.68;;;;;;;5.25;74.29;100226.06;10295675;28;20087;-59
2022/12/04 23:59:55;;;;;;;33.58;14.82;;;;;;;5.22;74.65;100221.88;10273599;28;20066;-59
